メインページ
METAR-TAF:

METAR-TAF

空港 :

ミズーラ, モンタナ州, アメリカ合衆国

緯度: 46-55-15N, 経度: 114-05-33W, 海抜: 975m

現時点の気象観測

当レポートは59分前の09:53(UTC)に作成
西の風 6kt
気温 3°C
湿度 93%
気圧 1003 hPa
視程: 16.1km
高度9500ftの曇り

METAR: KMSO 060953Z AUTO 27006KT 10SM OVC095 03/02 A2963 RMK AO2 SLP040 T00330017

時間: 04:52 (10:52 UTC)

予報

当レポートは5時間25分前の05:27(UTC)に作成
予報は06日の 06時(UTC)から 07日の 06時(UTC)まで有効
北/北西の風 6kt
視程: 10km
高度10000ftの千切れ雲あり
近辺でにわか雨
06日の 0900時(UTC)から
変向風 5kt
視程: 10km
高度5000ftの曇り
弱いにわか雨
06日の 1200時(UTC)から
の風 kt
視程: 9.7km
高度3500ftの千切れ雲あり
高度5000ftの曇り
弱いにわか雨, 靄
06日の 1700時(UTC)から
変向風 2kt
視程: 10km
高度5000ftの曇り
06日の 2000時(UTC)から
西/北西の風 10kt、最大17ktの突風を伴う
視程: 10km
高度6000ftの千切れ雲あり

TAF: KMSO 060527Z 0606/0706 33006KT P6SM VCSH BKN100 FM060900 VRB05KT P6SM -SHRA OVC050 FM061200 00000KT 6SM -SHRA BR BKN035 OVC050 FM061700 VRB02KT P6SM OVC050 FM062000 29010G17KT P6SM BKN060

4,000以上の空港の気象観測と天気予報(METAR報とTAF報)

利用可能な観測所は地図上に黄色い丸と赤い丸で示す。

丸の上にカーソルを重ねると観測所名を参照できる。

次にクリックすると気象観測と天気予報を参照できる。

マップの切り替え:黒色「×」印の緑ボタンをクリックして拡大、「-」印の緑ボタンをクリックして縮小、緑色の三角印をクリックして隣りの地図に切り替え


METAR-TAF: